aviador You're here:

KFRM Decoded Metar

FAIRMONT MUNI in MN, USA
Report Time2018-01-18 09:56:00
UTC Time2018-01-18 10:07:58
Flight Rules vfr VFR
Wind250° at 15 kt
W.Decomp.*RWY 20: 10.4 kt HW 10.8 kt RCW
RWY 31: 6.6 kt HW 13.5 kt LCW
W.Rank250° ranks 21
Current wind is above 250° avg. (8.8)
Visibility9999 m
Phenomena:N/A
Clouds:N/A
Expected CloudBase > 1,600 ft AGL from Temp-Dew spread
CeilingNone
Temp-4°C (ISA -17)
Dew Point-8°C (74% RH)
AAT-12.3°C
QNH1016 hPa
Density Alt-945 ft
Elevation1,161 ft
Report Wrong Elevation
Raw Report
METAR KFRM 180956Z AUTO 25015KT 10SM CLR M04/M08 A3001 RMK AO2 SLP182
T10441078 FZRANO=

Extra information for KFRM:More info

Metar Taf Metar & Taf Last 4 Metars F.Rules Stats Wind Profile Meteogram Temp Stats Airport Information Weather charts Add Link Nearby VenuesMetar ALERT Operation Metar Decoded Social comments

AIRNAV info for KFRM